createdAt,value
2023-02-15T00:00:52.356Z,2.00
2023-02-15T00:01:56.056Z,2.00
2023-02-15T00:02:59.867Z,2.00
2023-02-15T00:04:03.624Z,1.50
2023-02-15T00:05:07.448Z,1.00
2023-02-15T00:06:11.125Z,1.00
2023-02-15T00:07:14.851Z,1.00
2023-02-15T00:08:18.592Z,2.00
2023-02-15T00:09:22.148Z,2.00
2023-02-15T00:10:25.802Z,1.75
2023-02-15T00:11:29.521Z,2.00
2023-02-15T00:12:33.221Z,1.50
2023-02-15T00:13:37.065Z,2.50
2023-02-15T00:14:40.856Z,4.00
2023-02-15T00:15:44.373Z,3.50
2023-02-15T00:16:47.871Z,1.50
2023-02-15T00:17:51.400Z,1.50
2023-02-15T00:18:54.956Z,1.50
2023-02-15T00:19:58.399Z,1.50
2023-02-15T00:21:01.872Z,1.50
2023-02-15T00:22:05.276Z,1.50
2023-02-15T00:23:08.726Z,1.50
2023-02-15T00:24:12.334Z,1.50
2023-02-15T00:25:15.783Z,2.75
2023-02-15T00:26:19.332Z,3.25
2023-02-15T00:27:22.729Z,1.50
2023-02-15T00:28:28.852Z,2.00
2023-02-15T00:29:32.580Z,2.50
2023-02-15T00:30:35.963Z,2.50
2023-02-15T00:31:39.697Z,2.50
2023-02-15T00:32:43.412Z,2.25
2023-02-15T00:33:47.074Z,2.50
2023-02-15T00:34:50.738Z,0.50
2023-02-15T00:35:54.409Z,0.50
2023-02-15T00:36:57.790Z,1.50
2023-02-15T00:38:01.545Z,1.50
2023-02-15T00:39:05.214Z,0.33
2023-02-15T00:40:08.876Z,0.75
2023-02-15T00:41:12.602Z,1.00
2023-02-15T00:42:16.289Z,1.50
2023-02-15T00:43:19.954Z,2.00
2023-02-15T00:44:23.634Z,1.50
2023-02-15T00:45:27.307Z,1.00
2023-02-15T00:46:31.081Z,1.00
2023-02-15T00:47:34.768Z,0.75
2023-02-15T00:48:38.595Z,0.75
2023-02-15T00:49:45.216Z,0.50
2023-02-15T00:50:48.996Z,1.00
2023-02-15T00:51:52.639Z,1.00
2023-02-15T00:52:56.504Z,1.50
2023-02-15T00:54:00.222Z,1.50
2023-02-15T00:55:03.773Z,1.00
2023-02-15T00:56:07.455Z,0.75
2023-02-15T00:57:11.073Z,1.00
2023-02-15T00:58:14.736Z,1.50
2023-02-15T00:59:18.403Z,1.50
2023-02-15T01:00:22.035Z,1.50
2023-02-15T01:01:25.795Z,1.00
2023-02-15T01:02:29.544Z,1.50
2023-02-15T01:03:33.426Z,2.00
2023-02-15T01:04:37.471Z,2.25
2023-02-15T01:05:41.444Z,1.50
2023-02-15T01:06:45.237Z,2.50
2023-02-15T01:07:49.049Z,2.00
2023-02-15T01:08:52.993Z,1.50
2023-02-15T01:09:56.704Z,0.00
2023-02-15T01:11:00.357Z,1.50
2023-02-15T01:12:04.166Z,1.50
2023-02-15T01:13:07.914Z,1.00
2023-02-15T01:14:12.187Z,1.00
2023-02-15T01:15:15.776Z,2.00
2023-02-15T01:16:19.504Z,1.75
2023-02-15T01:17:23.353Z,0.75
2023-02-15T01:18:27.091Z,1.25
2023-02-15T01:19:30.864Z,1.50
2023-02-15T01:20:34.559Z,1.00
2023-02-15T01:21:38.629Z,1.50
2023-02-15T01:22:42.609Z,1.00
2023-02-15T01:23:46.342Z,0.75
2023-02-15T01:24:50.209Z,1.50
2023-02-15T01:25:53.969Z,1.75
2023-02-15T01:26:57.618Z,2.50
2023-02-15T01:28:01.242Z,2.00
2023-02-15T01:29:04.981Z,0.75
2023-02-15T01:30:08.779Z,1.00
2023-02-15T01:31:12.598Z,2.00
2023-02-15T01:32:16.480Z,1.75
2023-02-15T01:33:20.406Z,2.00
2023-02-15T01:34:24.126Z,0.50
2023-02-15T01:35:27.764Z,0.75
2023-02-15T01:36:31.581Z,1.50
2023-02-15T01:37:35.374Z,1.25
2023-02-15T01:38:39.139Z,1.25
2023-02-15T01:39:42.859Z,1.00
2023-02-15T01:40:46.548Z,1.00
2023-02-15T01:41:50.168Z,1.25
2023-02-15T01:42:53.872Z,0.50
2023-02-15T01:43:57.365Z,0.50
2023-02-15T01:45:00.833Z,0.50
2023-02-15T01:46:04.682Z,0.75
2023-02-15T01:47:08.312Z,1.00
2023-02-15T01:48:11.883Z,1.00
2023-02-15T01:49:15.256Z,1.00
2023-02-15T01:50:18.730Z,1.25
2023-02-15T01:51:22.178Z,1.25
2023-02-15T01:52:25.715Z,1.50
2023-02-15T01:53:29.279Z,1.25
2023-02-15T01:54:32.839Z,0.50
2023-02-15T01:55:36.256Z,0.75
2023-02-15T01:56:39.861Z,1.00
2023-02-15T01:57:43.498Z,0.25
2023-02-15T01:58:46.995Z,1.00
2023-02-15T01:59:50.361Z,1.00
2023-02-15T02:00:53.951Z,0.50
2023-02-15T02:01:57.566Z,0.50
2023-02-15T02:03:01.225Z,1.00
2023-02-15T02:04:04.790Z,0.50
2023-02-15T02:05:08.435Z,2.00
2023-02-15T02:06:11.863Z,1.00
2023-02-15T02:07:15.523Z,1.00
2023-02-15T02:08:19.275Z,1.00
2023-02-15T02:09:22.933Z,1.00
2023-02-15T02:10:26.365Z,0.75
2023-02-15T02:11:30.403Z,0.75
2023-02-15T02:12:33.870Z,1.00
2023-02-15T02:13:37.336Z,1.00
2023-02-15T02:14:40.755Z,0.00
2023-02-15T02:15:44.731Z,0.25
2023-02-15T02:16:48.771Z,1.00
2023-02-15T02:17:52.469Z,1.00
2023-02-15T02:18:56.157Z,0.00
2023-02-15T02:19:59.938Z,0.25
2023-02-15T02:21:03.594Z,0.75
2023-02-15T02:22:07.434Z,1.25
2023-02-15T02:23:11.266Z,1.00
2023-02-15T02:24:15.078Z,1.00
2023-02-15T02:25:18.888Z,0.50
2023-02-15T02:26:22.890Z,1.00
2023-02-15T02:27:26.538Z,1.50
2023-02-15T02:28:30.467Z,0.75
2023-02-15T02:29:34.274Z,0.50
2023-02-15T02:30:37.956Z,0.00
2023-02-15T02:31:41.885Z,0.00
2023-02-15T02:32:46.029Z,1.00
2023-02-15T02:33:49.837Z,0.75
2023-02-15T02:34:53.623Z,1.00
2023-02-15T02:35:57.451Z,0.50
2023-02-15T02:37:04.522Z,1.00
2023-02-15T02:38:08.238Z,1.50
2023-02-15T02:39:11.977Z,1.50
2023-02-15T02:40:15.709Z,2.00
2023-02-15T02:41:19.540Z,1.50
2023-02-15T02:42:23.172Z,1.00
2023-02-15T02:43:26.990Z,1.00
2023-02-15T02:44:30.802Z,0.50
2023-02-15T02:45:34.606Z,1.00
2023-02-15T02:46:38.306Z,1.00
2023-02-15T02:47:42.231Z,1.00
2023-02-15T02:48:45.966Z,1.00
2023-02-15T02:49:49.701Z,0.50
2023-02-15T02:50:53.334Z,0.50
2023-02-15T02:51:57.153Z,1.50
2023-02-15T02:53:00.866Z,1.75
2023-02-15T02:54:04.539Z,1.50
2023-02-15T02:55:08.224Z,2.00
2023-02-15T02:56:11.952Z,1.50
2023-02-15T02:57:15.713Z,1.25
2023-02-15T02:58:19.428Z,1.75
2023-02-15T02:59:23.177Z,2.00
2023-02-15T03:00:26.986Z,2.00
2023-02-15T03:01:30.704Z,2.50
2023-02-15T03:02:34.535Z,2.75
2023-02-15T03:03:38.262Z,3.00
2023-02-15T03:04:42.174Z,2.50
2023-02-15T03:05:45.764Z,2.50
2023-02-15T03:06:49.680Z,3.25
2023-02-15T03:07:53.349Z,2.50
2023-02-15T03:08:57.181Z,3.00
2023-02-15T03:10:00.929Z,2.00
2023-02-15T03:11:04.992Z,1.50
2023-02-15T03:12:08.708Z,2.00
2023-02-15T03:13:12.781Z,1.25
2023-02-15T03:14:16.675Z,1.00
2023-02-15T03:15:20.455Z,1.00
2023-02-15T03:16:24.651Z,1.00
2023-02-15T03:17:28.360Z,1.00
2023-02-15T03:18:32.140Z,0.50
2023-02-15T03:19:35.843Z,1.00
2023-02-15T03:20:39.519Z,1.25
2023-02-15T03:21:43.211Z,0.50
2023-02-15T03:22:47.038Z,1.00
2023-02-15T03:23:50.897Z,1.50
2023-02-15T03:24:54.698Z,1.50
2023-02-15T03:25:58.471Z,1.00
2023-02-15T03:27:02.217Z,0.50
2023-02-15T03:28:06.075Z,1.50
2023-02-15T03:29:09.832Z,1.00
2023-02-15T03:30:13.595Z,1.00
2023-02-15T03:31:17.489Z,1.50
2023-02-15T03:32:21.698Z,1.50
2023-02-15T03:33:25.477Z,1.25
2023-02-15T03:34:29.104Z,1.50
2023-02-15T03:35:33.027Z,0.75
2023-02-15T03:36:36.771Z,0.75
2023-02-15T03:37:40.516Z,1.00
2023-02-15T03:38:44.316Z,1.00
2023-02-15T03:39:48.041Z,1.50
2023-02-15T03:40:52.039Z,0.50
2023-02-15T03:41:55.817Z,1.00
2023-02-15T03:42:59.539Z,0.50
2023-02-15T03:44:03.273Z,0.50
2023-02-15T03:45:07.006Z,0.75
2023-02-15T03:46:10.834Z,0.50
2023-02-15T03:47:14.540Z,0.00
2023-02-15T03:48:18.244Z,0.00
2023-02-15T03:49:21.959Z,0.25
2023-02-15T03:50:25.683Z,0.00
2023-02-15T03:51:29.453Z,1.00
2023-02-15T03:52:33.545Z,1.00
2023-02-15T03:53:37.297Z,0.50
2023-02-15T03:54:41.047Z,0.00
2023-02-15T03:55:44.880Z,0.50
2023-02-15T03:56:48.674Z,1.00
2023-02-15T03:57:52.334Z,0.75
2023-02-15T03:58:55.998Z,0.75
2023-02-15T04:00:00.132Z,0.75
2023-02-15T04:01:03.850Z,0.00
2023-02-15T04:02:07.639Z,0.50
2023-02-15T04:03:11.470Z,1.50
2023-02-15T04:04:15.236Z,0.50
2023-02-15T04:05:19.022Z,0.50
2023-02-15T04:06:22.884Z,0.50
2023-02-15T04:07:26.580Z,0.00
2023-02-15T04:08:30.355Z,0.50
2023-02-15T04:09:34.255Z,0.00
2023-02-15T04:10:38.076Z,1.00
2023-02-15T04:11:42.020Z,2.00
2023-02-15T04:12:45.910Z,1.25
2023-02-15T04:13:49.587Z,1.00
2023-02-15T04:14:53.384Z,1.25
2023-02-15T04:15:57.045Z,0.50
2023-02-15T04:17:00.831Z,1.00
2023-02-15T04:18:04.728Z,1.00
2023-02-15T04:19:08.436Z,1.00
2023-02-15T04:20:12.034Z,1.00
2023-02-15T04:21:15.709Z,0.00
2023-02-15T04:22:19.455Z,0.50
2023-02-15T04:23:23.107Z,0.50
2023-02-15T04:24:26.811Z,1.00
2023-02-15T04:25:30.506Z,1.00
2023-02-15T04:26:34.274Z,0.50
2023-02-15T04:27:37.896Z,1.25
2023-02-15T04:28:41.593Z,0.75
2023-02-15T04:29:45.355Z,1.00
2023-02-15T04:30:49.105Z,0.00
2023-02-15T04:31:52.876Z,0.50
2023-02-15T04:32:56.652Z,1.00
2023-02-15T04:34:00.472Z,1.00
2023-02-15T04:35:04.369Z,1.00
2023-02-15T04:36:08.246Z,0.50
2023-02-15T04:37:11.947Z,1.00
2023-02-15T04:38:15.787Z,0.50
2023-02-15T04:39:19.523Z,0.50
2023-02-15T04:40:23.285Z,0.50
2023-02-15T04:41:27.219Z,0.50
2023-02-15T04:42:31.129Z,0.50
2023-02-15T04:43:35.236Z,0.50
2023-02-15T04:44:39.028Z,0.00
2023-02-15T04:45:42.703Z,0.50
2023-02-15T04:46:46.512Z,0.50
2023-02-15T04:47:50.248Z,1.00
2023-02-15T04:48:54.031Z,1.00
2023-02-15T04:49:58.180Z,1.50
2023-02-15T04:51:02.143Z,1.00
2023-02-15T04:52:05.945Z,0.50
2023-02-15T04:53:09.730Z,0.50
2023-02-15T04:54:13.627Z,1.00
2023-02-15T04:55:17.385Z,1.00
2023-02-15T04:56:21.253Z,0.50
2023-02-15T04:57:24.978Z,0.50
2023-02-15T04:58:28.788Z,0.50
2023-02-15T04:59:32.596Z,0.25
2023-02-15T05:00:36.285Z,0.50
2023-02-15T05:01:40.033Z,0.50
2023-02-15T05:02:43.777Z,1.00
2023-02-15T05:03:47.586Z,1.00
2023-02-15T05:04:51.289Z,1.00
2023-02-15T05:05:54.947Z,1.75
2023-02-15T05:06:58.593Z,1.50
2023-02-15T05:08:02.518Z,0.50
2023-02-15T05:09:06.302Z,0.00
2023-02-15T05:10:10.032Z,0.00
2023-02-15T05:11:13.927Z,0.00
2023-02-15T05:12:17.974Z,0.00
2023-02-15T05:13:21.644Z,0.50
2023-02-15T05:14:25.338Z,0.75
2023-02-15T05:15:28.978Z,0.25
2023-02-15T05:16:32.895Z,0.50
2023-02-15T05:17:36.708Z,0.50
2023-02-15T05:18:40.613Z,0.50
2023-02-15T05:19:46.343Z,0.50
2023-02-15T05:20:50.027Z,0.50
2023-02-15T05:21:59.007Z,1.00
2023-02-15T05:23:02.703Z,1.00
2023-02-15T05:24:06.531Z,1.25
2023-02-15T05:25:11.094Z,0.50
2023-02-15T05:26:14.944Z,0.75
2023-02-15T05:27:18.873Z,0.50
2023-02-15T05:28:22.573Z,0.50
2023-02-15T05:29:26.414Z,0.00
2023-02-15T05:30:30.772Z,0.00
2023-02-15T05:31:35.078Z,1.00
2023-02-15T05:32:39.290Z,0.50
2023-02-15T05:33:43.118Z,0.00
2023-02-15T05:34:46.817Z,1.50
2023-02-15T05:35:50.744Z,0.50
2023-02-15T05:36:54.371Z,0.25
2023-02-15T05:37:58.128Z,0.50
2023-02-15T05:39:01.845Z,0.00
2023-02-15T05:40:05.955Z,0.50
2023-02-15T05:41:09.813Z,1.00
2023-02-15T05:42:13.690Z,0.50
2023-02-15T05:43:17.476Z,0.00
2023-02-15T05:44:21.257Z,0.00
2023-02-15T05:45:24.968Z,0.00
2023-02-15T05:46:29.217Z,0.00
2023-02-15T05:47:32.960Z,0.00
2023-02-15T05:48:37.095Z,0.00
2023-02-15T05:49:40.969Z,0.50
2023-02-15T05:50:44.853Z,0.50
2023-02-15T05:51:48.698Z,0.50
2023-02-15T05:52:52.895Z,0.00
2023-02-15T05:54:00.001Z,0.50
2023-02-15T05:55:03.736Z,0.00
2023-02-15T05:56:07.394Z,0.00
2023-02-15T05:57:11.522Z,0.00
2023-02-15T05:58:15.233Z,0.00
2023-02-15T05:59:19.030Z,0.00
2023-02-15T06:00:22.756Z,0.00
2023-02-15T06:01:26.612Z,0.00
2023-02-15T06:02:30.457Z,0.50
2023-02-15T06:03:34.186Z,0.00
2023-02-15T06:04:37.970Z,0.00
2023-02-15T06:05:41.648Z,0.00
2023-02-15T06:06:45.325Z,0.50
2023-02-15T06:07:49.144Z,0.75
2023-02-15T06:08:52.873Z,0.75
2023-02-15T06:09:56.721Z,0.00
2023-02-15T06:11:00.356Z,1.00
2023-02-15T06:12:04.106Z,1.00
2023-02-15T06:13:07.648Z,0.50
2023-02-15T06:14:11.353Z,0.00
2023-02-15T06:15:15.326Z,0.00
2023-02-15T06:16:19.087Z,0.00
2023-02-15T06:17:22.905Z,0.50
2023-02-15T06:18:26.634Z,0.50
2023-02-15T06:19:30.588Z,0.50
2023-02-15T06:20:34.200Z,0.00
2023-02-15T06:21:37.991Z,1.00
2023-02-15T06:22:41.761Z,1.00
2023-02-15T06:23:45.701Z,1.00
2023-02-15T06:24:49.827Z,0.00
2023-02-15T06:25:53.782Z,0.00
2023-02-15T06:26:57.683Z,0.00
2023-02-15T06:28:01.526Z,0.00
2023-02-15T06:29:05.393Z,0.50
2023-02-15T06:30:09.431Z,0.00
2023-02-15T06:31:13.266Z,0.00
2023-02-15T06:32:17.236Z,0.00
2023-02-15T06:33:21.718Z,0.00
2023-02-15T06:34:25.491Z,0.50
2023-02-15T06:35:29.322Z,1.00
2023-02-15T06:36:33.209Z,0.50
2023-02-15T06:37:37.615Z,0.00
2023-02-15T06:38:41.372Z,0.00
2023-02-15T06:39:45.230Z,0.50
2023-02-15T06:40:48.968Z,1.00
2023-02-15T06:41:52.762Z,0.50
2023-02-15T06:42:56.639Z,0.50
2023-02-15T06:44:00.863Z,0.75
2023-02-15T06:45:04.594Z,0.50
2023-02-15T06:46:08.639Z,0.00
2023-02-15T06:47:12.324Z,0.00
2023-02-15T06:48:16.115Z,0.00
2023-02-15T06:49:19.872Z,0.25
2023-02-15T06:50:23.576Z,0.00
2023-02-15T06:51:27.259Z,0.00
2023-02-15T06:52:31.079Z,0.00
2023-02-15T06:53:34.768Z,0.25
2023-02-15T06:54:38.550Z,0.00
2023-02-15T06:55:42.244Z,0.00
2023-02-15T06:56:46.005Z,0.00
2023-02-15T06:57:50.928Z,0.00
2023-02-15T06:58:54.817Z,0.00
2023-02-15T06:59:58.727Z,0.00
2023-02-15T07:01:02.522Z,0.50
2023-02-15T07:02:06.379Z,0.00
2023-02-15T07:03:10.105Z,0.00
2023-02-15T07:04:13.709Z,0.50
2023-02-15T07:05:17.525Z,1.00
2023-02-15T07:06:21.345Z,0.00
2023-02-15T07:07:25.242Z,0.50
2023-02-15T07:08:29.015Z,0.50
2023-02-15T07:09:33.157Z,0.50
2023-02-15T07:10:37.030Z,0.00
2023-02-15T07:11:40.798Z,0.00
2023-02-15T07:12:44.594Z,0.50
2023-02-15T07:13:48.372Z,1.00
2023-02-15T07:14:52.044Z,0.00
2023-02-15T07:15:55.838Z,1.00
2023-02-15T07:16:59.674Z,0.00
2023-02-15T07:18:03.543Z,0.00
2023-02-15T07:19:07.593Z,0.00
2023-02-15T07:20:11.348Z,0.50
2023-02-15T07:21:15.183Z,0.50
2023-02-15T07:22:18.964Z,0.50
2023-02-15T07:23:22.779Z,0.00
2023-02-15T07:24:26.444Z,0.00
2023-02-15T07:25:30.343Z,0.00
2023-02-15T07:26:34.137Z,0.00
2023-02-15T07:27:37.956Z,0.00
2023-02-15T07:28:41.718Z,0.00
2023-02-15T07:29:45.627Z,0.00
2023-02-15T07:30:49.719Z,0.00
2023-02-15T07:31:53.529Z,0.00
2023-02-15T07:32:57.390Z,0.00
2023-02-15T07:34:01.191Z,0.00
2023-02-15T07:35:04.798Z,0.00
2023-02-15T07:36:08.512Z,0.50
2023-02-15T07:37:12.401Z,0.75
2023-02-15T07:38:16.084Z,0.50
2023-02-15T07:39:19.904Z,1.00
2023-02-15T07:40:23.721Z,0.75
2023-02-15T07:41:27.385Z,0.25
2023-02-15T07:42:31.124Z,0.00
2023-02-15T07:43:34.953Z,0.00
2023-02-15T07:44:38.668Z,1.00
2023-02-15T07:45:42.629Z,0.75
2023-02-15T07:46:46.318Z,0.00
2023-02-15T07:47:50.130Z,0.00
2023-02-15T07:48:53.825Z,0.75
2023-02-15T07:49:57.702Z,0.50
2023-02-15T07:51:01.490Z,0.00
2023-02-15T07:52:05.021Z,0.00
2023-02-15T07:53:08.796Z,0.00
2023-02-15T07:54:12.548Z,0.00
2023-02-15T07:55:16.289Z,0.00
2023-02-15T07:56:20.351Z,0.00
2023-02-15T07:57:23.928Z,1.00
2023-02-15T07:58:27.634Z,0.25
2023-02-15T07:59:31.391Z,0.00
2023-02-15T08:00:35.113Z,0.00
2023-02-15T08:01:38.760Z,0.50
2023-02-15T08:02:51.326Z,0.00
2023-02-15T08:03:55.262Z,0.50
2023-02-15T08:04:59.237Z,0.00
2023-02-15T08:06:03.222Z,0.25
2023-02-15T08:07:11.033Z,0.00
2023-02-15T08:08:14.524Z,0.00
2023-02-15T08:09:18.310Z,0.00
2023-02-15T08:10:23.572Z,0.50
2023-02-15T08:11:26.983Z,0.50
2023-02-15T08:12:30.757Z,0.50
2023-02-15T08:13:34.481Z,0.50
2023-02-15T08:14:38.120Z,1.00
2023-02-15T08:15:41.891Z,1.00
2023-02-15T08:16:45.723Z,0.00
2023-02-15T08:17:49.455Z,0.00
2023-02-15T08:18:53.087Z,0.00
2023-02-15T08:19:56.818Z,0.00
2023-02-15T08:21:00.408Z,0.00
2023-02-15T08:22:04.237Z,0.00
2023-02-15T08:23:07.845Z,0.00
2023-02-15T08:24:11.641Z,0.25
2023-02-15T08:25:15.529Z,0.50
2023-02-15T08:26:19.441Z,0.25
2023-02-15T08:27:23.144Z,0.00
2023-02-15T08:28:26.800Z,0.00
2023-02-15T08:29:30.521Z,0.50
2023-02-15T08:30:36.130Z,0.00
2023-02-15T08:31:39.099Z,0.75
2023-02-15T08:32:42.996Z,0.50
2023-02-15T08:33:46.774Z,0.25
2023-02-15T08:34:50.435Z,1.00
2023-02-15T08:35:54.131Z,0.75
2023-02-15T08:36:58.148Z,0.50
2023-02-15T08:38:01.845Z,0.00
2023-02-15T08:39:05.571Z,0.75
2023-02-15T08:40:10.481Z,1.00
2023-02-15T08:41:14.283Z,0.50
2023-02-15T08:42:18.040Z,0.00
2023-02-15T08:43:21.752Z,0.00
2023-02-15T08:44:25.450Z,0.00
2023-02-15T08:45:29.201Z,0.00
2023-02-15T08:46:33.068Z,0.50
2023-02-15T08:47:36.810Z,0.50
2023-02-15T08:48:40.445Z,0.50
2023-02-15T08:49:44.129Z,0.00
2023-02-15T08:50:47.888Z,0.50
2023-02-15T08:51:51.571Z,0.50
2023-02-15T08:52:55.176Z,0.50
2023-02-15T08:53:58.888Z,1.00
2023-02-15T08:55:02.521Z,1.00
2023-02-15T08:56:06.192Z,1.50
2023-02-15T08:57:09.803Z,1.00
2023-02-15T08:58:13.560Z,1.00
2023-02-15T08:59:17.290Z,0.00
2023-02-15T09:00:21.063Z,0.00
2023-02-15T09:01:24.893Z,1.00
2023-02-15T09:02:28.693Z,0.75
2023-02-15T09:03:32.694Z,1.00
2023-02-15T09:04:36.481Z,0.50
2023-02-15T09:05:40.174Z,0.75
2023-02-15T09:06:43.841Z,0.00
2023-02-15T09:07:47.728Z,1.00
2023-02-15T09:08:51.497Z,0.75
2023-02-15T09:09:55.068Z,0.50
2023-02-15T09:10:58.832Z,0.50
2023-02-15T09:12:02.299Z,0.00
2023-02-15T09:13:05.916Z,0.00
2023-02-15T09:14:09.675Z,0.00
2023-02-15T09:15:13.297Z,1.00
2023-02-15T09:16:17.140Z,0.50
2023-02-15T09:17:20.836Z,0.50
2023-02-15T09:18:24.616Z,1.00
2023-02-15T09:19:28.322Z,0.50
2023-02-15T09:20:32.361Z,1.00
2023-02-15T09:21:36.077Z,1.50
2023-02-15T09:22:39.669Z,1.50
2023-02-15T09:23:43.448Z,0.50
2023-02-15T09:24:47.196Z,0.50
2023-02-15T09:25:50.874Z,1.50
2023-02-15T09:26:54.407Z,1.00
2023-02-15T09:27:58.163Z,1.50
2023-02-15T09:29:03.434Z,1.00
2023-02-15T09:30:06.836Z,0.75
2023-02-15T09:31:10.604Z,1.00
2023-02-15T09:32:14.402Z,1.00
2023-02-15T09:33:18.137Z,0.75
2023-02-15T09:34:21.924Z,0.50
2023-02-15T09:35:25.679Z,0.50
2023-02-15T09:36:29.369Z,0.75
2023-02-15T09:37:32.995Z,0.50
2023-02-15T09:38:36.754Z,0.00
2023-02-15T09:39:40.553Z,0.50
2023-02-15T09:40:44.198Z,0.50
2023-02-15T09:41:47.881Z,0.50
2023-02-15T09:42:51.583Z,0.50
2023-02-15T09:43:55.359Z,0.50
2023-02-15T09:44:59.060Z,0.00
2023-02-15T09:46:02.830Z,0.00
2023-02-15T09:47:06.575Z,0.00
2023-02-15T09:48:10.444Z,0.00
2023-02-15T09:49:18.985Z,0.50
2023-02-15T09:50:22.676Z,1.00
2023-02-15T09:51:26.683Z,0.25
2023-02-15T09:52:30.346Z,0.00
2023-02-15T09:53:34.208Z,0.00
2023-02-15T09:54:38.199Z,0.50
2023-02-15T09:55:41.894Z,0.50
2023-02-15T09:56:45.630Z,1.00
2023-02-15T09:57:49.306Z,1.00
2023-02-15T09:58:53.051Z,1.50
2023-02-15T09:59:56.733Z,0.50
2023-02-15T10:01:00.811Z,0.50
2023-02-15T10:02:04.882Z,1.00
2023-02-15T10:03:08.707Z,0.00
2023-02-15T10:04:12.420Z,0.00
2023-02-15T10:05:16.320Z,0.50
2023-02-15T10:06:20.003Z,0.50
2023-02-15T10:07:24.002Z,0.75
2023-02-15T10:08:27.729Z,1.00
2023-02-15T10:09:31.447Z,0.50
2023-02-15T10:10:35.292Z,0.00
2023-02-15T10:11:38.992Z,0.25
2023-02-15T10:12:42.872Z,0.75
2023-02-15T10:13:46.795Z,1.00
2023-02-15T10:14:50.558Z,1.25
2023-02-15T10:15:54.332Z,0.75
2023-02-15T10:16:58.048Z,0.50
2023-02-15T10:18:01.935Z,0.25
2023-02-15T10:19:05.592Z,0.00
2023-02-15T10:20:09.284Z,0.00
2023-02-15T10:21:13.068Z,0.00
2023-02-15T10:22:16.919Z,0.50
2023-02-15T10:23:20.755Z,1.00
2023-02-15T10:24:24.532Z,0.50
2023-02-15T10:25:28.398Z,0.00
2023-02-15T10:26:32.102Z,0.00
2023-02-15T10:27:35.849Z,0.00
2023-02-15T10:28:39.522Z,0.75
2023-02-15T10:29:43.314Z,0.50
2023-02-15T10:30:47.187Z,0.00
2023-02-15T10:31:51.053Z,0.00
2023-02-15T10:32:54.794Z,0.50
2023-02-15T10:33:58.653Z,0.50
2023-02-15T10:35:02.532Z,0.00
2023-02-15T10:36:06.379Z,0.50
2023-02-15T10:37:10.154Z,0.50
2023-02-15T10:38:13.848Z,0.50
2023-02-15T10:39:17.546Z,0.50
2023-02-15T10:40:21.331Z,1.00
2023-02-15T10:41:25.206Z,1.00
2023-02-15T10:42:28.839Z,0.00
2023-02-15T10:43:32.219Z,0.00
2023-02-15T10:44:36.052Z,0.50
2023-02-15T10:45:39.998Z,1.00
2023-02-15T10:46:43.672Z,0.25
2023-02-15T10:47:47.794Z,0.00
2023-02-15T10:48:51.716Z,0.00
2023-02-15T10:49:55.662Z,0.00
2023-02-15T10:50:59.359Z,0.00
2023-02-15T10:52:03.117Z,0.00
2023-02-15T10:53:06.784Z,0.00
2023-02-15T10:54:10.484Z,1.00
2023-02-15T10:55:14.255Z,1.00
2023-02-15T10:56:18.054Z,0.50
2023-02-15T10:57:21.674Z,1.00
2023-02-15T10:58:25.447Z,1.00
2023-02-15T10:59:29.202Z,0.75
2023-02-15T11:00:32.910Z,0.50
2023-02-15T11:01:36.873Z,0.00
2023-02-15T11:02:40.637Z,0.25
2023-02-15T11:03:44.332Z,1.00
2023-02-15T11:04:48.130Z,0.50
2023-02-15T11:05:51.876Z,0.00
2023-02-15T11:06:55.671Z,0.50
2023-02-15T11:07:59.396Z,0.50
2023-02-15T11:09:03.071Z,0.50
2023-02-15T11:10:06.746Z,1.50
2023-02-15T11:11:10.349Z,0.75
2023-02-15T11:12:14.109Z,0.50
2023-02-15T11:13:17.802Z,0.75
2023-02-15T11:14:21.487Z,0.00
2023-02-15T11:15:25.167Z,0.00
2023-02-15T11:16:28.946Z,0.50
2023-02-15T11:17:32.762Z,0.50
2023-02-15T11:18:36.360Z,0.50
2023-02-15T11:19:40.135Z,1.50
2023-02-15T11:20:43.847Z,1.00
2023-02-15T11:21:47.535Z,0.75
2023-02-15T11:22:51.239Z,1.50
2023-02-15T11:23:55.158Z,1.25
2023-02-15T11:24:58.895Z,0.75
2023-02-15T11:26:02.744Z,0.00
2023-02-15T11:27:06.590Z,0.75
2023-02-15T11:28:10.518Z,0.00
2023-02-15T11:29:14.139Z,1.00
2023-02-15T11:30:17.946Z,1.50
2023-02-15T11:31:21.756Z,1.50
2023-02-15T11:32:25.558Z,0.50
2023-02-15T11:33:29.560Z,0.50
2023-02-15T11:34:33.324Z,0.50
2023-02-15T11:35:36.764Z,1.00
2023-02-15T11:36:40.511Z,0.00
2023-02-15T11:37:44.255Z,1.00
2023-02-15T11:38:48.160Z,1.50
2023-02-15T11:39:51.811Z,0.50
2023-02-15T11:40:55.562Z,0.50
2023-02-15T11:41:59.307Z,1.00
2023-02-15T11:43:03.071Z,0.50
2023-02-15T11:44:06.646Z,1.00
2023-02-15T11:45:10.358Z,0.50
2023-02-15T11:46:14.065Z,1.00
2023-02-15T11:47:17.838Z,1.50
2023-02-15T11:48:21.587Z,1.50
2023-02-15T11:49:25.332Z,1.00
2023-02-15T11:50:29.014Z,0.00
2023-02-15T11:51:32.809Z,0.00
2023-02-15T11:52:36.637Z,1.00
2023-02-15T11:53:40.372Z,1.00
2023-02-15T11:54:44.258Z,0.00
2023-02-15T11:55:48.255Z,0.50
2023-02-15T11:56:51.884Z,0.50
2023-02-15T11:57:55.532Z,0.50
2023-02-15T11:58:59.363Z,0.50
2023-02-15T12:00:02.717Z,0.00
2023-02-15T12:01:06.496Z,0.50
2023-02-15T12:02:10.344Z,0.00
2023-02-15T12:03:14.135Z,0.50
2023-02-15T12:04:17.818Z,0.50
2023-02-15T12:05:21.518Z,1.00
2023-02-15T12:06:25.193Z,0.75
2023-02-15T12:07:28.921Z,0.75
2023-02-15T12:08:32.813Z,1.00
2023-02-15T12:09:36.553Z,0.75
2023-02-15T12:10:40.283Z,0.50
2023-02-15T12:11:44.036Z,0.25
2023-02-15T12:12:47.765Z,0.00
2023-02-15T12:13:51.519Z,0.50
2023-02-15T12:14:55.409Z,0.50
2023-02-15T12:15:59.191Z,1.25
2023-02-15T12:17:02.891Z,0.50
2023-02-15T12:18:06.718Z,0.50
2023-02-15T12:19:10.533Z,0.50
2023-02-15T12:20:14.193Z,1.00
2023-02-15T12:21:17.791Z,0.50
2023-02-15T12:22:21.555Z,0.00
2023-02-15T12:23:25.227Z,0.00
2023-02-15T12:24:28.939Z,0.50
2023-02-15T12:25:32.872Z,0.25
2023-02-15T12:26:36.578Z,0.00
2023-02-15T12:27:45.673Z,0.75
2023-02-15T12:28:49.336Z,1.00
2023-02-15T12:29:53.112Z,0.00
2023-02-15T12:30:56.865Z,1.00
2023-02-15T12:32:00.632Z,0.50
2023-02-15T12:33:04.512Z,0.50
2023-02-15T12:34:08.183Z,0.50
2023-02-15T12:35:11.843Z,1.50
2023-02-15T12:36:15.573Z,1.00
2023-02-15T12:37:19.373Z,0.75
2023-02-15T12:38:23.118Z,0.75
2023-02-15T12:39:26.722Z,0.50
2023-02-15T12:40:31.616Z,0.50
2023-02-15T12:41:35.440Z,0.50
2023-02-15T12:42:39.109Z,0.75
2023-02-15T12:43:42.758Z,0.50
2023-02-15T12:44:46.480Z,0.00
2023-02-15T12:45:50.289Z,0.50
2023-02-15T12:46:54.154Z,0.00
2023-02-15T12:47:57.904Z,0.50
2023-02-15T12:49:01.735Z,0.50
2023-02-15T12:50:05.603Z,0.50
2023-02-15T12:51:09.508Z,0.75
2023-02-15T12:52:13.557Z,0.50
2023-02-15T12:53:17.596Z,1.50
2023-02-15T12:54:23.303Z,0.50
2023-02-15T12:55:26.457Z,0.00
2023-02-15T12:56:30.218Z,0.00
2023-02-15T12:57:33.894Z,1.00
2023-02-15T12:58:37.607Z,1.25
2023-02-15T12:59:42.467Z,0.50
2023-02-15T13:00:46.280Z,0.75
2023-02-15T13:01:50.049Z,1.00
2023-02-15T13:02:53.865Z,0.25
2023-02-15T13:03:57.710Z,0.00
2023-02-15T13:05:01.253Z,0.00
2023-02-15T13:06:04.953Z,0.00
2023-02-15T13:07:08.715Z,0.00
2023-02-15T13:08:12.332Z,0.25
2023-02-15T13:09:16.047Z,0.00
2023-02-15T13:10:19.841Z,0.50
2023-02-15T13:11:23.522Z,1.00
2023-02-15T13:12:27.242Z,1.00
2023-02-15T13:13:31.039Z,1.00
2023-02-15T13:14:34.845Z,1.00
2023-02-15T13:15:38.612Z,0.50
2023-02-15T13:16:42.405Z,0.75
2023-02-15T13:17:46.071Z,0.00
2023-02-15T13:18:49.959Z,0.25
2023-02-15T13:19:53.757Z,0.50
2023-02-15T13:20:57.403Z,0.50
2023-02-15T13:22:01.195Z,0.00
2023-02-15T13:23:04.919Z,0.50
2023-02-15T13:24:08.704Z,0.50
2023-02-15T13:25:12.330Z,0.50
2023-02-15T13:26:16.250Z,0.50
2023-02-15T13:27:19.897Z,0.50
2023-02-15T13:28:23.606Z,0.50
2023-02-15T13:29:27.256Z,1.00
2023-02-15T13:30:31.185Z,0.50
2023-02-15T13:31:35.275Z,0.00
2023-02-15T13:32:39.056Z,0.50
2023-02-15T13:33:42.841Z,0.50
2023-02-15T13:34:46.717Z,0.00
2023-02-15T13:35:50.593Z,0.50
2023-02-15T13:36:54.315Z,1.00
2023-02-15T13:37:57.946Z,1.00
2023-02-15T13:39:01.642Z,0.50
2023-02-15T13:40:05.397Z,0.50
2023-02-15T13:41:09.196Z,1.00
2023-02-15T13:42:12.993Z,0.50
2023-02-15T13:43:16.823Z,0.50
2023-02-15T13:44:20.459Z,0.50
2023-02-15T13:45:24.121Z,1.00
2023-02-15T13:46:27.836Z,0.00
2023-02-15T13:47:31.479Z,0.50
2023-02-15T13:48:45.957Z,0.50
2023-02-15T13:49:40.260Z,0.50
2023-02-15T13:50:43.979Z,0.50
2023-02-15T13:51:47.849Z,0.25
2023-02-15T13:52:51.640Z,1.50
2023-02-15T13:53:55.266Z,1.00
2023-02-15T13:54:59.099Z,0.50
2023-02-15T13:56:03.225Z,1.50
2023-02-15T13:57:07.280Z,1.50
2023-02-15T13:58:10.921Z,0.50
2023-02-15T13:59:14.644Z,0.50
2023-02-15T14:00:18.361Z,1.00
2023-02-15T14:01:22.374Z,0.25
2023-02-15T14:02:26.072Z,0.50
2023-02-15T14:03:29.805Z,1.00
2023-02-15T14:04:33.654Z,0.00
2023-02-15T14:05:37.360Z,0.00
2023-02-15T14:06:41.086Z,1.00
2023-02-15T14:07:44.699Z,1.00
2023-02-15T14:08:48.322Z,1.00
2023-02-15T14:09:51.992Z,0.50